createdAt,value
2024-02-27T00:00:27.939Z,9.70
2024-02-27T00:02:54.952Z,10.57
2024-02-27T00:05:22.034Z,9.67
2024-02-27T00:07:49.135Z,10.57
2024-02-27T00:10:16.426Z,10.03
2024-02-27T00:12:43.435Z,9.67
2024-02-27T00:15:10.973Z,10.73
2024-02-27T00:17:38.053Z,10.63
2024-02-27T00:20:06.188Z,11.53
2024-02-27T00:22:33.200Z,10.90
2024-02-27T00:25:00.172Z,11.20
2024-02-27T00:27:27.121Z,11.17
2024-02-27T00:29:54.980Z,11.93
2024-02-27T00:32:22.071Z,11.47
2024-02-27T00:34:48.982Z,11.77
2024-02-27T00:37:15.990Z,11.50
2024-02-27T00:39:42.910Z,12.50
2024-02-27T00:42:09.843Z,11.73
2024-02-27T00:44:39.312Z,12.17
2024-02-27T00:47:12.412Z,12.43
2024-02-27T00:49:39.728Z,13.23
2024-02-27T00:52:07.954Z,13.00
2024-02-27T00:54:34.928Z,12.93
2024-02-27T00:57:01.938Z,13.67
2024-02-27T00:59:28.863Z,14.00
2024-02-27T01:01:55.822Z,13.20
2024-02-27T01:04:22.699Z,12.77
2024-02-27T01:06:49.789Z,13.73
2024-02-27T01:09:16.840Z,13.57
2024-02-27T01:11:43.921Z,13.57
2024-02-27T01:14:10.982Z,13.20
2024-02-27T01:16:38.025Z,13.37
2024-02-27T01:19:05.521Z,13.43
2024-02-27T01:21:32.647Z,12.63
2024-02-27T01:23:59.664Z,14.77
2024-02-27T01:26:26.554Z,14.37
2024-02-27T01:28:56.610Z,13.63
2024-02-27T01:31:23.520Z,13.93
2024-02-27T01:33:51.217Z,14.37
2024-02-27T01:36:18.359Z,13.67
2024-02-27T01:38:45.275Z,13.97
2024-02-27T01:41:12.244Z,15.57
2024-02-27T01:43:39.076Z,13.53
2024-02-27T01:46:17.875Z,14.77
2024-02-27T01:48:46.912Z,14.40
2024-02-27T01:51:17.827Z,13.30
2024-02-27T01:53:51.901Z,14.23
2024-02-27T01:56:19.455Z,14.60
2024-02-27T01:58:47.890Z,15.03
2024-02-27T02:01:15.890Z,15.20
2024-02-27T02:03:45.713Z,13.97
2024-02-27T02:06:13.420Z,14.60
2024-02-27T02:08:40.527Z,15.50
2024-02-27T02:11:10.165Z,14.13
2024-02-27T02:13:38.558Z,14.67
2024-02-27T02:16:06.306Z,14.43
2024-02-27T02:18:33.408Z,14.70
2024-02-27T02:21:01.778Z,14.80
2024-02-27T02:23:30.326Z,14.00
2024-02-27T02:26:02.280Z,14.83
2024-02-27T02:28:29.404Z,13.97
2024-02-27T02:30:56.516Z,14.40
2024-02-27T02:33:23.762Z,14.40
2024-02-27T02:35:50.827Z,14.10
2024-02-27T02:38:17.795Z,14.83
2024-02-27T02:40:44.659Z,14.83
2024-02-27T02:43:11.634Z,15.40
2024-02-27T02:45:39.313Z,14.30
2024-02-27T02:48:06.863Z,13.80
2024-02-27T02:50:34.049Z,14.67
2024-02-27T02:53:00.937Z,14.10
2024-02-27T02:55:29.229Z,14.70
2024-02-27T02:57:56.615Z,15.03
2024-02-27T03:00:23.771Z,13.87
2024-02-27T03:02:50.699Z,14.93
2024-02-27T03:05:20.533Z,15.23
2024-02-27T03:07:47.385Z,14.20
2024-02-27T03:10:14.297Z,14.57
2024-02-27T03:12:45.677Z,14.13
2024-02-27T03:15:13.519Z,13.77
2024-02-27T03:17:41.019Z,14.17
2024-02-27T03:20:10.929Z,14.00
2024-02-27T03:22:38.562Z,14.40
2024-02-27T03:25:06.962Z,12.57
2024-02-27T03:27:35.574Z,12.57
2024-02-27T03:30:03.364Z,14.10
2024-02-27T03:32:30.813Z,13.33
2024-02-27T03:34:58.059Z,12.93
2024-02-27T03:37:25.230Z,12.53
2024-02-27T03:39:52.129Z,14.30
2024-02-27T03:42:19.051Z,13.60
2024-02-27T03:44:48.744Z,15.20
2024-02-27T03:47:16.122Z,14.03
2024-02-27T03:49:43.454Z,13.90
2024-02-27T03:52:11.978Z,14.03
2024-02-27T03:54:39.083Z,13.20
2024-02-27T03:57:06.742Z,13.63
2024-02-27T03:59:33.957Z,12.97
2024-02-27T04:02:00.821Z,13.67
2024-02-27T04:04:28.563Z,14.03
2024-02-27T04:06:55.781Z,13.40
2024-02-27T04:09:22.756Z,12.97
2024-02-27T04:11:49.652Z,13.70
2024-02-27T04:14:16.943Z,13.57
2024-02-27T04:16:43.817Z,13.80
2024-02-27T04:19:14.091Z,12.40
2024-02-27T04:21:41.174Z,12.77
2024-02-27T04:24:08.304Z,15.53
2024-02-27T04:26:35.202Z,12.90
2024-02-27T04:29:02.097Z,12.77
2024-02-27T04:31:29.830Z,12.83
2024-02-27T04:33:56.870Z,12.90
2024-02-27T04:36:23.914Z,12.23
2024-02-27T04:38:50.987Z,11.40
2024-02-27T04:41:17.855Z,12.60
2024-02-27T04:43:44.816Z,12.47
2024-02-27T04:46:11.739Z,13.10
2024-02-27T04:48:38.935Z,12.73
2024-02-27T04:51:08.281Z,11.77
2024-02-27T04:53:35.180Z,12.13
2024-02-27T04:56:03.702Z,12.07
2024-02-27T04:58:30.601Z,11.37
2024-02-27T05:00:57.495Z,12.33
2024-02-27T05:03:24.601Z,11.90
2024-02-27T05:05:51.592Z,12.00
2024-02-27T05:08:18.538Z,11.23
2024-02-27T05:10:45.421Z,11.63
2024-02-27T05:13:12.522Z,11.93
2024-02-27T05:15:39.513Z,11.57
2024-02-27T05:18:07.987Z,11.03
2024-02-27T05:20:35.091Z,10.83
2024-02-27T05:23:02.229Z,11.37
2024-02-27T05:25:35.230Z,11.13
2024-02-27T05:28:02.351Z,10.60
2024-02-27T05:30:29.324Z,11.10
2024-02-27T05:32:56.476Z,11.33
2024-02-27T05:35:23.517Z,11.33
2024-02-27T05:37:50.635Z,11.00
2024-02-27T05:40:17.637Z,10.60
2024-02-27T05:42:44.709Z,11.00
2024-02-27T05:45:12.947Z,11.63
2024-02-27T05:47:39.952Z,11.23
2024-02-27T05:50:07.977Z,11.63
2024-02-27T05:52:34.924Z,11.90
2024-02-27T05:55:02.146Z,10.73
2024-02-27T05:57:29.066Z,11.23
2024-02-27T05:59:56.074Z,11.53
2024-02-27T06:02:22.926Z,11.73
2024-02-27T06:04:49.822Z,10.97
2024-02-27T06:07:17.690Z,11.03
2024-02-27T06:09:44.775Z,11.73
2024-02-27T06:12:11.821Z,12.17
2024-02-27T06:14:38.770Z,12.40
2024-02-27T06:17:06.481Z,12.43
2024-02-27T06:19:33.535Z,12.27
2024-02-27T06:22:13.197Z,12.17
2024-02-27T06:24:40.573Z,11.97
2024-02-27T06:27:10.585Z,13.17
2024-02-27T06:29:37.881Z,12.13
2024-02-27T06:32:08.364Z,13.47
2024-02-27T06:34:36.086Z,13.07
2024-02-27T06:37:03.683Z,14.03
2024-02-27T06:39:31.401Z,12.93
2024-02-27T06:41:58.432Z,14.23
2024-02-27T06:44:26.202Z,13.33
2024-02-27T06:46:53.339Z,14.33
2024-02-27T06:49:23.246Z,13.67
2024-02-27T06:51:51.433Z,14.03
2024-02-27T06:54:19.621Z,14.53
2024-02-27T06:56:46.674Z,13.60
2024-02-27T06:59:13.621Z,14.27
2024-02-27T07:01:40.540Z,13.87
2024-02-27T07:04:07.840Z,14.27
2024-02-27T07:06:36.177Z,14.63
2024-02-27T07:09:09.542Z,15.07
2024-02-27T07:11:36.657Z,15.13
2024-02-27T07:14:03.619Z,13.93
2024-02-27T07:16:30.470Z,16.13
2024-02-27T07:18:57.487Z,15.03
2024-02-27T07:21:24.464Z,13.80
2024-02-27T07:23:51.830Z,14.83
2024-02-27T07:26:20.999Z,15.43
2024-02-27T07:28:47.942Z,15.03
2024-02-27T07:31:18.277Z,15.37
2024-02-27T07:33:46.122Z,14.47
2024-02-27T07:36:13.232Z,13.97
2024-02-27T07:38:40.233Z,15.03
2024-02-27T07:41:07.183Z,13.87
2024-02-27T07:43:34.143Z,13.23
2024-02-27T07:46:01.272Z,14.50
2024-02-27T07:48:28.233Z,14.90
2024-02-27T07:50:55.716Z,14.57
2024-02-27T07:53:23.399Z,14.33
2024-02-27T07:55:51.219Z,15.47
2024-02-27T07:58:18.184Z,15.33
2024-02-27T08:00:45.385Z,14.53
2024-02-27T08:03:13.349Z,14.60
2024-02-27T08:05:40.279Z,14.70
2024-02-27T08:08:07.397Z,14.17
2024-02-27T08:10:34.619Z,14.40
2024-02-27T08:13:01.483Z,14.80
2024-02-27T08:15:28.441Z,15.50
2024-02-27T08:17:55.551Z,14.27
2024-02-27T08:20:22.613Z,15.40
2024-02-27T08:22:49.751Z,14.20
2024-02-27T08:25:16.820Z,14.40
2024-02-27T08:27:43.879Z,13.53
2024-02-27T08:30:11.812Z,13.83
2024-02-27T08:32:38.954Z,13.57
2024-02-27T08:35:06.792Z,13.17
2024-02-27T08:37:36.845Z,14.17
2024-02-27T08:40:04.488Z,14.63
2024-02-27T08:42:31.576Z,14.00
2024-02-27T08:44:58.485Z,13.93
2024-02-27T08:47:26.956Z,13.97
2024-02-27T08:49:53.987Z,13.97
2024-02-27T08:52:21.043Z,14.10
2024-02-27T08:54:47.931Z,13.77
2024-02-27T08:57:15.142Z,14.07
2024-02-27T08:59:47.772Z,14.23
2024-02-27T09:02:15.858Z,13.80
2024-02-27T09:04:42.891Z,13.73
2024-02-27T09:07:12.274Z,13.87
2024-02-27T09:09:45.262Z,13.50
2024-02-27T09:12:13.459Z,13.30
2024-02-27T09:14:40.581Z,13.80
2024-02-27T09:17:07.516Z,13.00
2024-02-27T09:19:34.532Z,12.67
2024-02-27T09:22:02.063Z,13.97
2024-02-27T09:24:29.094Z,13.57
2024-02-27T09:26:56.026Z,12.23
2024-02-27T09:29:22.936Z,13.33
2024-02-27T09:31:49.836Z,13.50
2024-02-27T09:34:16.992Z,13.77
2024-02-27T09:36:44.132Z,13.77
2024-02-27T09:39:11.164Z,13.98
2024-02-27T09:42:33.689Z,13.23
2024-02-27T09:45:09.466Z,13.57
2024-02-27T09:47:47.643Z,13.05
2024-02-27T09:50:20.510Z,13.20
2024-02-27T09:52:52.872Z,13.53
2024-02-27T09:55:24.430Z,12.75
2024-02-27T09:57:53.979Z,12.73
2024-02-27T10:00:21.857Z,13.48
2024-02-27T10:02:52.506Z,13.15
2024-02-27T10:05:23.888Z,12.73
2024-02-27T10:07:52.717Z,13.18
2024-02-27T10:10:20.974Z,13.17
2024-02-27T10:12:48.110Z,14.00
2024-02-27T10:15:15.760Z,13.10
2024-02-27T10:17:46.683Z,12.90
2024-02-27T10:20:18.835Z,12.05
2024-02-27T10:22:46.303Z,12.63
2024-02-27T10:25:16.409Z,11.73
2024-02-27T10:27:44.056Z,12.57
2024-02-27T10:30:13.021Z,9.77
2024-02-27T10:32:44.400Z,12.75
2024-02-27T10:35:12.953Z,11.13
2024-02-27T10:37:40.362Z,11.70
2024-02-27T10:40:09.337Z,10.70
2024-02-27T10:45:58.987Z,11.25
2024-02-27T10:48:37.983Z,11.48
2024-02-27T10:51:09.661Z,11.82
2024-02-27T10:53:39.228Z,12.48
2024-02-27T10:56:07.927Z,11.98
2024-02-27T10:58:37.299Z,11.70
2024-02-27T11:01:07.964Z,11.20
2024-02-27T11:03:41.957Z,11.60
2024-02-27T11:06:19.848Z,9.93
2024-02-27T11:08:54.958Z,11.10
2024-02-27T11:11:23.213Z,11.50
2024-02-27T11:13:52.331Z,10.73
2024-02-27T11:16:24.157Z,10.82
2024-02-27T11:19:00.100Z,10.15
2024-02-27T11:21:30.889Z,10.70
2024-02-27T11:23:58.625Z,10.18
2024-02-27T11:26:26.154Z,11.38
2024-02-27T11:28:54.375Z,10.48
2024-02-27T11:31:22.271Z,10.45
2024-02-27T11:33:53.036Z,10.20
2024-02-27T11:36:22.207Z,9.57
2024-02-27T11:38:49.225Z,10.05
2024-02-27T11:41:22.886Z,10.15
2024-02-27T11:43:54.673Z,8.90
2024-02-27T11:46:30.575Z,8.63
2024-02-27T11:48:59.859Z,9.25
2024-02-27T11:51:31.533Z,8.50
2024-02-27T11:53:58.915Z,7.63
2024-02-27T11:56:27.284Z,7.50
2024-02-27T11:58:54.805Z,8.30
2024-02-27T12:01:25.227Z,7.35
2024-02-27T12:03:52.485Z,7.35
2024-02-27T12:06:19.811Z,7.68
2024-02-27T12:08:52.296Z,8.32
2024-02-27T12:11:21.475Z,8.07
2024-02-27T12:13:50.628Z,8.07
2024-02-27T12:16:24.705Z,7.82
2024-02-27T12:18:53.367Z,7.53
2024-02-27T12:21:35.201Z,10.73
2024-02-27T12:24:22.762Z,10.00
2024-02-27T12:26:50.891Z,10.27
2024-02-27T12:29:18.508Z,10.13
2024-02-27T12:31:45.650Z,10.13
2024-02-27T12:34:14.191Z,9.43
2024-02-27T12:36:41.371Z,7.20
2024-02-27T12:39:08.925Z,6.95
2024-02-27T12:41:35.983Z,8.32
2024-02-27T12:44:06.755Z,8.27
2024-02-27T12:46:33.980Z,9.85
2024-02-27T12:49:01.104Z,8.95
2024-02-27T12:51:28.173Z,9.52
2024-02-27T12:53:55.169Z,10.85
2024-02-27T12:56:22.299Z,10.57
2024-02-27T12:58:54.747Z,10.75
2024-02-27T13:01:22.336Z,10.85
2024-02-27T13:03:52.452Z,10.38
2024-02-27T13:06:20.656Z,11.38
2024-02-27T13:08:48.473Z,11.23
2024-02-27T13:11:15.479Z,11.10
2024-02-27T13:13:42.455Z,10.18
2024-02-27T13:16:09.669Z,10.32
2024-02-27T13:18:37.775Z,10.23
2024-02-27T13:21:05.115Z,10.40
2024-02-27T13:23:32.036Z,10.90
2024-02-27T13:26:02.053Z,9.88
2024-02-27T13:28:30.421Z,10.30
2024-02-27T13:30:58.186Z,11.05
2024-02-27T13:33:27.401Z,11.35
2024-02-27T13:35:55.242Z,10.65
2024-02-27T13:38:22.204Z,9.57
2024-02-27T13:40:49.657Z,8.55
2024-02-27T13:43:16.717Z,9.75
2024-02-27T13:45:43.663Z,8.77
2024-02-27T13:48:13.632Z,9.15
2024-02-27T13:50:40.690Z,9.32
2024-02-27T13:53:13.212Z,8.70
2024-02-27T13:55:42.106Z,8.70
2024-02-27T13:58:09.106Z,8.57
2024-02-27T14:00:36.623Z,8.70
2024-02-27T14:03:04.821Z,7.80
2024-02-27T14:05:32.253Z,8.43
2024-02-27T14:07:59.368Z,8.73
2024-02-27T14:10:26.262Z,8.25
2024-02-27T14:12:53.267Z,8.52
2024-02-27T14:15:20.504Z,8.65
2024-02-27T14:17:47.751Z,8.27
2024-02-27T14:20:17.630Z,8.18
2024-02-27T14:22:45.727Z,9.23
2024-02-27T14:25:12.794Z,8.57
2024-02-27T14:27:39.806Z,8.02
2024-02-27T14:30:11.165Z,7.38
2024-02-27T14:32:39.200Z,8.13
2024-02-27T14:35:06.635Z,8.32
2024-02-27T14:37:34.785Z,8.23
2024-02-27T14:40:03.020Z,8.43
2024-02-27T14:42:29.970Z,9.57
2024-02-27T14:44:57.058Z,9.05
2024-02-27T14:47:24.000Z,8.90
2024-02-27T14:49:51.209Z,8.68
2024-02-27T14:52:18.159Z,8.38
2024-02-27T14:54:45.592Z,9.00
2024-02-27T14:57:15.993Z,8.77
2024-02-27T14:59:43.665Z,8.80
2024-02-27T15:02:12.687Z,9.20
2024-02-27T15:04:39.704Z,8.15
2024-02-27T15:07:08.176Z,8.50
2024-02-27T15:09:35.412Z,8.32
2024-02-27T15:12:06.975Z,8.82
2024-02-27T15:14:34.153Z,8.43
2024-02-27T15:17:01.076Z,8.20
2024-02-27T15:19:28.346Z,8.65
2024-02-27T15:21:55.320Z,8.23
2024-02-27T15:24:25.460Z,8.27
2024-02-27T15:26:52.464Z,8.25
2024-02-27T15:29:19.373Z,7.88
2024-02-27T15:31:46.412Z,7.90
2024-02-27T15:34:13.551Z,8.40
2024-02-27T15:36:40.598Z,8.63
2024-02-27T15:39:07.611Z,7.63
2024-02-27T15:41:34.540Z,11.23
2024-02-27T15:44:08.265Z,10.25
2024-02-27T15:46:39.350Z,11.13
2024-02-27T15:49:06.369Z,10.32
2024-02-27T15:51:33.648Z,11.43
2024-02-27T15:54:00.633Z,11.65
2024-02-27T15:56:27.630Z,10.77
2024-02-27T15:58:55.268Z,10.48
2024-02-27T16:01:22.309Z,11.57
2024-02-27T16:04:20.798Z,11.50
2024-02-27T16:07:04.736Z,11.23
2024-02-27T16:09:31.727Z,11.27
2024-02-27T16:12:07.761Z,10.38
2024-02-27T16:14:42.187Z,11.23
2024-02-27T16:17:09.116Z,11.07
2024-02-27T16:19:36.230Z,10.68
2024-02-27T16:22:11.138Z,11.02
2024-02-27T16:24:38.413Z,11.00
2024-02-27T16:27:06.599Z,11.63
2024-02-27T16:29:33.714Z,11.18
2024-02-27T16:32:01.562Z,11.77
2024-02-27T16:34:29.091Z,12.00
2024-02-27T16:36:58.888Z,11.18
2024-02-27T16:39:25.929Z,11.10
2024-02-27T16:41:52.918Z,12.20
2024-02-27T16:44:19.827Z,11.05
2024-02-27T16:46:47.378Z,11.75
2024-02-27T16:49:14.836Z,12.65
2024-02-27T16:51:41.950Z,12.70
2024-02-27T16:54:09.264Z,12.35
2024-02-27T16:56:37.454Z,12.10
2024-02-27T16:59:04.823Z,12.25
2024-02-27T17:01:31.868Z,12.05
2024-02-27T17:03:58.889Z,12.10
2024-02-27T17:06:27.608Z,12.17
2024-02-27T17:08:54.846Z,12.37
2024-02-27T17:11:22.460Z,13.07
2024-02-27T17:13:49.366Z,13.27
2024-02-27T17:16:16.545Z,12.00
2024-02-27T17:18:43.638Z,12.13
2024-02-27T17:21:11.095Z,13.63
2024-02-27T17:23:38.106Z,13.48
2024-02-27T17:26:06.108Z,13.90
2024-02-27T17:28:34.915Z,13.53
2024-02-27T17:31:01.909Z,12.50
2024-02-27T17:33:29.021Z,13.23
2024-02-27T17:35:58.852Z,12.60
2024-02-27T17:38:25.811Z,13.77
2024-02-27T17:40:52.729Z,13.23
2024-02-27T17:43:20.023Z,12.90
2024-02-27T17:45:47.407Z,13.33
2024-02-27T17:48:16.080Z,12.27
2024-02-27T17:50:43.641Z,13.23
2024-02-27T17:53:10.844Z,12.47
2024-02-27T17:55:38.120Z,12.30
2024-02-27T17:58:07.530Z,12.73
2024-02-27T18:00:35.666Z,12.23
2024-02-27T18:03:03.225Z,11.80
2024-02-27T18:05:30.250Z,12.07
2024-02-27T18:07:57.192Z,11.10
2024-02-27T18:10:24.729Z,11.40
2024-02-27T18:12:51.744Z,11.37
2024-02-27T18:15:20.154Z,10.83
2024-02-27T18:17:50.342Z,11.43
2024-02-27T18:20:18.660Z,11.63
2024-02-27T18:22:48.555Z,13.13
2024-02-27T18:25:15.765Z,11.37
2024-02-27T18:27:42.907Z,11.17
2024-02-27T18:30:11.829Z,13.13
2024-02-27T18:32:39.840Z,13.87
2024-02-27T18:35:07.313Z,14.10
2024-02-27T18:37:34.274Z,14.70
2024-02-27T18:40:02.011Z,13.50
2024-02-27T18:42:29.193Z,12.40
2024-02-27T18:44:56.184Z,11.63
2024-02-27T18:47:23.102Z,12.63
2024-02-27T18:49:50.328Z,12.93
2024-02-27T18:52:20.748Z,13.63
2024-02-27T18:54:48.815Z,14.10
2024-02-27T18:57:16.271Z,12.37
2024-02-27T18:59:43.384Z,13.83
2024-02-27T19:02:10.489Z,13.23
2024-02-27T19:04:37.566Z,14.07
2024-02-27T19:07:05.358Z,15.83
2024-02-27T19:09:32.619Z,15.20
2024-02-27T19:12:00.108Z,15.30
2024-02-27T19:14:27.343Z,16.47
2024-02-27T19:16:56.565Z,17.33
2024-02-27T19:19:23.740Z,17.57
2024-02-27T19:21:50.828Z,16.13
2024-02-27T19:24:18.130Z,16.27
2024-02-27T19:26:48.283Z,16.17
2024-02-27T19:29:15.432Z,14.93
2024-02-27T19:31:42.354Z,15.43
2024-02-27T19:34:09.281Z,15.10
2024-02-27T19:36:36.256Z,15.20
2024-02-27T19:39:05.130Z,15.53
2024-02-27T19:41:32.157Z,15.20
2024-02-27T19:43:59.134Z,15.93
2024-02-27T19:46:26.184Z,13.83
2024-02-27T19:48:53.368Z,15.50
2024-02-27T19:51:21.319Z,14.23
2024-02-27T19:53:49.956Z,14.17
2024-02-27T19:56:18.433Z,15.60
2024-02-27T19:58:45.614Z,14.93
2024-02-27T20:01:14.610Z,15.37
2024-02-27T20:03:42.124Z,14.20
2024-02-27T20:06:09.336Z,14.90
2024-02-27T20:08:47.106Z,14.90
2024-02-27T20:11:14.691Z,16.07
2024-02-27T20:13:42.360Z,15.17
2024-02-27T20:16:10.042Z,15.53
2024-02-27T20:18:40.062Z,15.27
2024-02-27T20:21:07.594Z,15.33
2024-02-27T20:23:35.334Z,15.60
2024-02-27T20:26:06.206Z,15.83
2024-02-27T20:28:33.904Z,15.67
2024-02-27T20:31:04.311Z,15.87
2024-02-27T20:33:31.495Z,15.13
2024-02-27T20:35:58.539Z,15.07
2024-02-27T20:38:25.431Z,15.40
2024-02-27T20:40:52.332Z,15.57
2024-02-27T20:43:19.309Z,14.63
2024-02-27T20:45:46.537Z,14.80
2024-02-27T20:48:15.046Z,16.00
2024-02-27T20:50:42.221Z,15.53
2024-02-27T20:53:09.553Z,16.57
2024-02-27T20:55:36.452Z,14.93
2024-02-27T20:58:03.437Z,15.53
2024-02-27T21:00:30.333Z,15.03
2024-02-27T21:02:57.278Z,14.73
2024-02-27T21:05:24.242Z,14.30
2024-02-27T21:07:53.781Z,15.93
2024-02-27T21:10:23.176Z,15.60
2024-02-27T21:12:50.167Z,15.80
2024-02-27T21:15:17.215Z,14.87
2024-02-27T21:17:44.218Z,14.10
2024-02-27T21:20:12.512Z,14.53
2024-02-27T21:22:39.492Z,13.43
2024-02-27T21:25:06.755Z,14.93
2024-02-27T21:27:33.640Z,16.47
2024-02-27T21:30:00.722Z,18.27
2024-02-27T21:32:27.688Z,13.70
2024-02-27T21:34:54.621Z,16.00
2024-02-27T21:37:21.497Z,17.40
2024-02-27T21:39:51.005Z,17.23
2024-02-27T21:42:20.056Z,18.47
2024-02-27T21:44:47.049Z,17.47
2024-02-27T21:47:13.976Z,18.93
2024-02-27T21:49:40.930Z,21.43
2024-02-27T21:52:07.886Z,19.97
2024-02-27T21:54:34.819Z,17.13
2024-02-27T21:57:01.762Z,15.50
2024-02-27T21:59:28.653Z,16.07
2024-02-27T22:01:55.545Z,17.13
2024-02-27T22:04:22.497Z,16.43
2024-02-27T22:06:49.997Z,15.83
2024-02-27T22:09:17.244Z,17.10
2024-02-27T22:11:44.460Z,17.07
2024-02-27T22:14:13.261Z,17.67
2024-02-27T22:16:40.568Z,33.30
2024-02-27T22:19:07.721Z,28.60
2024-02-27T22:21:34.663Z,21.07
2024-02-27T22:24:01.640Z,19.60
2024-02-27T22:26:28.526Z,16.53
2024-02-27T22:28:55.413Z,16.47
2024-02-27T22:31:22.365Z,15.87
2024-02-27T22:33:49.300Z,17.00
2024-02-27T22:36:16.251Z,16.07
2024-02-27T22:38:43.160Z,17.90
2024-02-27T22:41:11.049Z,16.47
2024-02-27T22:43:38.674Z,15.80
2024-02-27T22:46:05.578Z,17.00
2024-02-27T22:48:32.747Z,17.30
2024-02-27T22:50:59.641Z,16.83
2024-02-27T22:53:26.534Z,17.97
2024-02-27T22:55:53.414Z,17.00
2024-02-27T22:58:20.284Z,16.70
2024-02-27T23:00:47.180Z,17.77
2024-02-27T23:03:14.861Z,17.63
2024-02-27T23:05:41.960Z,17.80
2024-02-27T23:08:08.919Z,16.50
2024-02-27T23:10:35.908Z,16.67
2024-02-27T23:13:06.837Z,16.80
2024-02-27T23:15:34.468Z,17.73
2024-02-27T23:18:01.686Z,18.40
2024-02-27T23:20:28.601Z,17.63
2024-02-27T23:22:55.442Z,17.37
2024-02-27T23:25:22.340Z,16.93
2024-02-27T23:27:49.433Z,16.70
2024-02-27T23:30:16.586Z,17.27
2024-02-27T23:32:43.540Z,18.57
2024-02-27T23:35:13.462Z,17.57
2024-02-27T23:37:46.254Z,19.57
2024-02-27T23:40:13.378Z,18.80
2024-02-27T23:42:41.802Z,17.37
2024-02-27T23:45:09.039Z,17.23
2024-02-27T23:47:35.924Z,16.00
2024-02-27T23:50:03.697Z,14.97
2024-02-27T23:52:30.560Z,15.13
2024-02-27T23:54:57.690Z,16.20
2024-02-27T23:57:24.614Z,15.83
2024-02-27T23:59:52.693Z,16.10
